Time;durP1;ratioP1;P1;durP2;ratioP2;P2;SDS_P1;SDS_P2;PMS_P1;PMS_P2;Temp;Humidity;BMP_temperature;BMP_pressure;BME280_temperature;BME280_humidity;BME280_pressure;Samples;Min_cycle;Max_cycle;Signal;HPM_P1;HPM_P2
2023/09/09 00:00:52;;;;;;;19.13;18.33;;;21.20;99.90;;;;;;4949479;28;20466;-86
2023/09/09 00:03:22;;;;;;;21.03;19.77;;;21.10;99.90;;;;;;4946619;28;20846;-85
2023/09/09 00:05:50;;;;;;;19.83;18.73;;;21.10;99.90;;;;;;4955360;28;20481;-85
2023/09/09 00:08:19;;;;;;;19.60;18.60;;;21.00;99.90;;;;;;4951506;28;20992;-85
2023/09/09 00:10:48;;;;;;;20.87;19.50;;;21.00;99.90;;;;;;4952004;28;20971;-84
2023/09/09 00:13:17;;;;;;;19.43;18.43;;;21.00;99.90;;;;;;4948480;28;20852;-88
2023/09/09 00:15:46;;;;;;;19.63;18.63;;;21.00;99.90;;;;;;4946595;28;20559;-85
2023/09/09 00:18:16;;;;;;;19.73;18.73;;;21.00;99.90;;;;;;4941685;28;20497;-85
2023/09/09 00:20:44;;;;;;;19.33;18.33;;;21.00;99.90;;;;;;4951625;28;20465;-83
2023/09/09 00:23:13;;;;;;;20.80;19.63;;;20.90;99.90;;;;;;4951804;28;20527;-86
2023/09/09 00:25:42;;;;;;;19.83;18.83;;;20.90;99.90;;;;;;4951438;28;20488;-85
2023/09/09 00:28:12;;;;;;;20.13;19.13;;;20.90;99.90;;;;;;4950722;28;20547;-86
2023/09/09 00:30:40;;;;;;;20.23;19.00;;;20.80;99.90;;;;;;4949838;28;20500;-85
2023/09/09 00:33:09;;;;;;;20.60;19.50;;;20.80;99.90;;;;;;4952276;28;20527;-87
2023/09/09 00:35:39;;;;;;;19.77;18.67;;;20.80;99.90;;;;;;4950868;28;20491;-85
2023/09/09 00:38:10;;;;;;;19.83;18.73;;;20.80;99.90;;;;;;4950695;28;20572;-84
2023/09/09 00:40:38;;;;;;;20.50;19.30;;;20.80;99.90;;;;;;4962132;28;20562;-85
2023/09/09 00:43:06;;;;;;;19.60;18.67;;;20.70;99.90;;;;;;4953083;28;20468;-85
2023/09/09 00:45:35;;;;;;;21.07;19.77;;;20.70;99.90;;;;;;4947381;28;21110;-85
2023/09/09 00:48:11;;;;;;;28.27;18.77;;;20.70;99.90;;;;;;4951500;28;20481;-84
2023/09/09 00:50:44;;;;;;;20.13;18.93;;;20.70;99.90;;;;;;4949682;28;20467;-85
2023/09/09 00:53:41;;;;;;;19.60;18.50;;;20.70;99.90;;;;;;4947150;28;20456;-84
2023/09/09 01:04:50;;;;;;;20.33;19.10;;;20.70;99.90;;;;;;4953177;28;20445;-85
2023/09/09 01:07:20;;;;;;;20.03;18.93;;;20.60;99.90;;;;;;4943558;28;20473;-85
2023/09/09 01:09:48;;;;;;;20.30;19.27;;;20.60;99.90;;;;;;4944185;28;20460;-87
2023/09/09 01:12:16;;;;;;;20.30;19.20;;;20.60;99.90;;;;;;4951297;28;20471;-86
2023/09/09 01:14:44;;;;;;;20.07;19.00;;;20.60;99.90;;;;;;4951109;28;20482;-86
2023/09/09 01:17:14;;;;;;;20.77;19.53;;;20.60;99.90;;;;;;4950588;28;21486;-86
2023/09/09 01:19:42;;;;;;;20.40;19.30;;;20.60;99.90;;;;;;4948047;28;20549;-85
2023/09/09 01:22:18;;;;;;;20.30;19.30;;;20.50;99.90;;;;;;4944613;28;20473;-83
2023/09/09 01:24:47;;;;;;;19.93;18.93;;;20.50;99.90;;;;;;4947057;28;20484;-85
2023/09/09 01:27:15;;;;;;;19.87;18.70;;;20.50;99.90;;;;;;4945319;28;20897;-85
2023/09/09 01:29:43;;;;;;;20.03;18.93;;;20.50;99.90;;;;;;4949112;28;20457;-85
2023/09/09 01:32:11;;;;;;;20.77;19.60;;;20.50;99.90;;;;;;4950273;28;20460;-85
2023/09/09 01:34:40;;;;;;;20.57;19.47;;;20.50;99.90;;;;;;4951915;28;20555;-86
2023/09/09 01:37:08;;;;;;;20.63;19.43;;;20.50;99.90;;;;;;4952364;28;20472;-84
2023/09/09 01:39:37;;;;;;;20.07;18.97;;;20.50;99.90;;;;;;4949023;28;20536;-85
2023/09/09 01:42:06;;;;;;;20.93;19.63;;;20.50;99.90;;;;;;4948119;28;20476;-86
2023/09/09 01:44:34;;;;;;;21.17;19.77;;;20.50;99.90;;;;;;4955921;28;20452;-84
2023/09/09 01:47:03;;;;;;;19.70;18.60;;;20.50;99.90;;;;;;4950337;28;20489;-86
2023/09/09 01:49:31;;;;;;;20.27;19.17;;;20.40;99.90;;;;;;4951648;28;21249;-86
2023/09/09 01:51:59;;;;;;;20.57;19.00;;;20.40;1.00;;;;;;4948821;28;20469;-84
2023/09/09 01:54:27;;;;;;;19.30;18.30;;;20.40;1.00;;;;;;4954108;28;20479;-86
2023/09/09 01:56:57;;;;;;;19.93;18.73;;;20.40;99.90;;;;;;4952191;28;21009;-85
2023/09/09 01:59:25;;;;;;;20.17;19.07;;;20.40;99.90;;;;;;4950501;28;20497;-84
2023/09/09 02:01:54;;;;;;;20.87;19.57;;;20.40;1.00;;;;;;4950897;28;20527;-83
2023/09/09 02:04:22;;;;;;;19.70;18.70;;;20.30;1.00;;;;;;4951955;28;20466;-86
2023/09/09 02:06:50;;;;;;;20.40;19.30;;;20.40;1.00;;;;;;4946114;28;20477;-85
2023/09/09 02:09:18;;;;;;;19.73;18.63;;;20.40;1.00;;;;;;4960765;28;20478;-83
2023/09/09 02:11:46;;;;;;;20.47;19.47;;;20.30;1.00;;;;;;4949074;28;20555;-85
2023/09/09 02:14:16;;;;;;;19.43;18.53;;;20.30;1.00;;;;;;4954362;28;20981;-83
2023/09/09 02:16:44;;;;;;;21.33;20.13;;;20.30;1.00;;;;;;4949436;28;20483;-87
2023/09/09 02:19:12;;;;;;;19.33;18.33;;;20.30;1.00;;;;;;4949079;28;20485;-86
2023/09/09 02:21:41;;;;;;;20.37;19.30;;;20.30;1.00;;;;;;4954885;28;20536;-86
2023/09/09 02:24:09;;;;;;;20.37;19.17;;;20.30;1.00;;;;;;4950687;28;20460;-87
2023/09/09 02:26:37;;;;;;;19.43;18.43;;;20.30;1.00;;;;;;4955735;28;20532;-86
2023/09/09 02:29:05;;;;;;;20.43;19.33;;;20.20;1.00;;;;;;4951947;28;20454;-87
2023/09/09 02:31:35;;;;;;;20.53;19.53;;;20.20;1.00;;;;;;4952063;28;20547;-87
2023/09/09 02:34:03;;;;;;;20.90;19.50;;;20.20;1.00;;;;;;4949304;28;20459;-83
2023/09/09 02:36:32;;;;;;;20.80;19.70;;;20.20;1.00;;;;;;4950054;28;20507;-84
2023/09/09 02:39:00;;;;;;;20.70;19.60;;;20.20;1.00;;;;;;4950478;28;20472;-85
2023/09/09 02:41:29;;;;;;;20.93;19.83;;;20.20;1.00;;;;;;4949228;28;20977;-85
2023/09/09 02:43:58;;;;;;;21.10;19.90;;;20.10;1.00;;;;;;4947138;28;21337;-86
2023/09/09 02:46:26;;;;;;;20.80;19.60;;;20.20;1.00;;;;;;4954299;28;21390;-86
2023/09/09 02:48:55;;;;;;;20.53;19.50;;;20.20;1.00;;;;;;4948472;28;20445;-86
2023/09/09 02:51:24;;;;;;;20.00;19.00;;;20.20;1.00;;;;;;4949061;28;20464;-84
2023/09/09 02:53:52;;;;;;;21.13;20.13;;;20.20;1.00;;;;;;4952530;28;20486;-87
2023/09/09 02:56:20;;;;;;;21.13;19.83;;;20.10;1.00;;;;;;4950803;28;20508;-85
2023/09/09 02:58:48;;;;;;;21.57;20.37;;;20.10;1.00;;;;;;4953370;28;20575;-86
2023/09/09 03:01:17;;;;;;;21.00;19.40;;;20.00;4.30;;;;;;4947969;28;20989;-86
2023/09/09 03:03:45;;;;;;;21.40;20.30;;;20.00;90.80;;;;;;4948073;28;20990;-84
2023/09/09 03:06:15;;;;;;;20.90;19.80;;;20.10;42.30;;;;;;4945149;28;21069;-86
2023/09/09 03:08:44;;;;;;;21.60;20.20;;;20.00;36.80;;;;;;4947892;28;20463;-85
2023/09/09 03:11:12;;;;;;;20.80;19.70;;;20.00;12.30;;;;;;4950794;28;20470;-85
2023/09/09 03:13:43;;;;;;;21.37;20.07;;;20.00;1.00;;;;;;4951977;28;20474;-85
2023/09/09 03:16:12;;;;;;;21.57;20.27;;;20.00;1.00;;;;;;4948962;28;20493;-85
2023/09/09 03:18:40;;;;;;;21.80;20.70;;;20.10;1.00;;;;;;4950242;28;20460;-83
2023/09/09 03:21:08;;;;;;;20.80;19.70;;;20.00;1.00;;;;;;4951269;28;20467;-85
2023/09/09 03:23:38;;;;;;;21.77;20.07;;;20.00;38.60;;;;;;4951771;28;20465;-86
2023/09/09 03:26:06;;;;;;;21.63;20.33;;;20.00;76.60;;;;;;4952004;28;20564;-86
2023/09/09 03:28:34;;;;;;;22.23;20.80;;;20.00;97.10;;;;;;4951158;28;20540;-85
2023/09/09 03:31:03;;;;;;;20.97;19.83;;;19.90;99.90;;;;;;4949071;28;20445;-84
2023/09/09 03:33:31;;;;;;;21.13;20.03;;;19.90;99.90;;;;;;4948682;28;20475;-83
2023/09/09 03:36:00;;;;;;;20.87;19.87;;;19.90;99.90;;;;;;4946301;28;20528;-84
2023/09/09 03:38:28;;;;;;;21.87;20.77;;;19.90;99.90;;;;;;4952125;28;20504;-84
2023/09/09 03:40:58;;;;;;;21.67;20.47;;;19.90;99.90;;;;;;4952564;28;20473;-85
2023/09/09 03:43:26;;;;;;;21.27;20.10;;;19.90;93.80;;;;;;4949642;28;20511;-87
2023/09/09 03:45:55;;;;;;;22.10;20.80;;;19.90;99.90;;;;;;4949468;28;20485;-85
2023/09/09 03:48:24;;;;;;;22.47;21.20;;;19.90;99.90;;;;;;4951269;28;20544;-85
2023/09/09 03:50:57;;;;;;;21.40;20.20;;;19.80;99.90;;;;;;4948141;28;20969;-85
2023/09/09 03:53:25;;;;;;;21.20;20.10;;;19.90;99.90;;;;;;4948471;28;20453;-84
2023/09/09 03:55:53;;;;;;;21.07;19.97;;;19.80;55.40;;;;;;4946252;28;20892;-86
2023/09/09 03:58:24;;;;;;;20.87;19.73;;;19.80;99.90;;;;;;4958844;28;20457;-85
2023/09/09 04:01:05;;;;;;;21.77;20.57;;;19.80;99.90;;;;;;4947055;28;20539;-85
2023/09/09 04:03:34;;;;;;;20.90;19.80;;;19.80;61.60;;;;;;4947648;28;20475;-86
2023/09/09 04:06:08;;;;;;;21.33;20.10;;;19.80;54.80;;;;;;4949062;28;21204;-85
2023/09/09 04:08:38;;;;;;;21.50;20.33;;;19.80;94.90;;;;;;4950564;28;20489;-85
2023/09/09 04:11:06;;;;;;;20.83;19.57;;;19.80;99.90;;;;;;4954888;28;20464;-82
2023/09/09 04:13:37;;;;;;;21.67;20.47;;;19.80;99.90;;;;;;4948276;28;20992;-86
2023/09/09 04:16:07;;;;;;;21.07;19.87;;;19.80;99.90;;;;;;4945606;28;20493;-85
2023/09/09 04:18:35;;;;;;;22.10;20.80;;;19.80;99.90;;;;;;4951225;28;20445;-85
2023/09/09 04:21:06;;;;;;;22.23;20.90;;;19.80;99.90;;;;;;4950116;28;20496;-84
2023/09/09 04:23:35;;;;;;;20.97;19.97;;;19.70;99.90;;;;;;4949408;28;20463;-86
2023/09/09 04:26:04;;;;;;;21.40;20.30;;;19.70;99.90;;;;;;4946909;28;20485;-83
2023/09/09 04:28:32;;;;;;;21.03;20.00;;;19.70;99.90;;;;;;4949473;28;20453;-83
2023/09/09 04:31:02;;;;;;;21.70;20.50;;;19.70;99.90;;;;;;4945302;28;20449;-87
2023/09/09 04:33:30;;;;;;;22.30;21.00;;;19.70;99.90;;;;;;4946065;28;20469;-84
2023/09/09 04:35:59;;;;;;;21.20;20.00;;;19.70;99.90;;;;;;4947197;28;20488;-85
2023/09/09 04:38:27;;;;;;;22.67;21.33;;;19.70;99.90;;;;;;4948587;28;20464;-84
2023/09/09 04:40:56;;;;;;;22.67;21.47;;;19.60;99.90;;;;;;4942853;28;20478;-85
2023/09/09 04:43:24;;;;;;;23.43;22.13;;;19.60;99.90;;;;;;4946932;28;20489;-87
2023/09/09 04:45:52;;;;;;;22.30;20.90;;;19.60;1.00;;;;;;4945925;28;20502;-86
2023/09/09 04:48:22;;;;;;;23.87;22.23;;;19.60;1.00;;;;;;4941868;28;20488;-85
2023/09/09 04:50:50;;;;;;;22.67;21.47;;;19.50;1.00;;;;;;4952372;28;20448;-85
2023/09/09 04:53:18;;;;;;;22.33;21.17;;;19.50;1.00;;;;;;4947073;28;20564;-84
2023/09/09 04:55:47;;;;;;;21.73;20.63;;;19.50;1.00;;;;;;4944490;28;20564;-85
2023/09/09 04:58:15;;;;;;;22.67;21.17;;;19.60;1.00;;;;;;4950203;28;20973;-86
2023/09/09 05:00:43;;;;;;;22.23;20.80;;;19.60;99.90;;;;;;4952225;28;20488;-85
2023/09/09 05:03:11;;;;;;;21.20;19.97;;;19.50;99.90;;;;;;4963491;28;20543;-86
2023/09/09 05:05:41;;;;;;;22.97;21.57;;;19.50;99.90;;;;;;4946789;28;20468;-85
2023/09/09 05:08:09;;;;;;;21.87;20.57;;;19.50;99.90;;;;;;4960120;28;20449;-85
2023/09/09 05:10:37;;;;;;;22.00;20.87;;;19.50;99.90;;;;;;4952418;28;20463;-84
2023/09/09 05:13:06;;;;;;;22.07;20.67;;;19.50;1.00;;;;;;4946033;28;20495;-85
2023/09/09 05:15:38;;;;;;;21.83;20.57;;;19.60;99.90;;;;;;4946764;28;21096;-86
2023/09/09 05:18:07;;;;;;;22.77;21.40;;;19.50;99.90;;;;;;4961223;28;21268;-84
2023/09/09 05:20:39;;;;;;;22.77;21.47;;;19.50;1.00;;;;;;4944986;28;20469;-85
2023/09/09 05:23:08;;;;;;;22.60;21.40;;;19.60;1.00;;;;;;4945258;28;20519;-85
2023/09/09 05:25:44;;;;;;;21.30;20.20;;;19.50;1.00;;;;;;4943557;28;20461;-85
2023/09/09 05:28:12;;;;;;;22.37;21.07;;;19.50;1.00;;;;;;4946090;28;20487;-84
2023/09/09 05:30:41;;;;;;;23.53;22.23;;;19.50;1.00;;;;;;4945806;28;20463;-84
2023/09/09 05:33:10;;;;;;;22.77;21.53;;;19.60;1.00;;;;;;4944523;28;21015;-84
2023/09/09 05:35:38;;;;;;;21.83;20.63;;;19.50;1.00;;;;;;4946774;28;20548;-84
2023/09/09 05:38:08;;;;;;;23.77;22.37;;;19.50;1.00;;;;;;4948875;28;20459;-87
2023/09/09 05:40:36;;;;;;;22.67;21.30;;;19.60;1.00;;;;;;4943778;28;20825;-85
2023/09/09 05:43:05;;;;;;;23.50;22.20;;;19.60;1.00;;;;;;4946918;28;20585;-85
2023/09/09 05:45:33;;;;;;;23.63;22.33;;;19.60;1.00;;;;;;4941690;28;20955;-86
2023/09/09 05:48:05;;;;;;;24.73;23.23;;;19.60;1.00;;;;;;4945822;28;20532;-86
2023/09/09 05:50:36;;;;;;;23.67;22.27;;;19.60;99.90;;;;;;4947852;28;20472;-85
2023/09/09 05:53:12;;;;;;;23.73;22.43;;;19.60;99.90;;;;;;4946106;28;20489;-82
2023/09/09 05:55:40;;;;;;;25.60;23.80;;;19.60;99.90;;;;;;4950688;28;20460;-84
2023/09/09 05:58:40;;;;;;;25.33;23.70;;;19.60;99.90;;;;;;4949178;28;20464;-84
2023/09/09 06:01:11;;;;;;;23.77;22.37;;;19.70;99.90;;;;;;4956781;28;20472;-84
2023/09/09 06:03:40;;;;;;;25.17;23.70;;;19.80;32.40;;;;;;4946433;28;20515;-81
2023/09/09 06:06:09;;;;;;;23.80;22.40;;;20.00;1.00;;;;;;4944912;28;20476;-84
2023/09/09 06:08:50;;;;;;;23.80;22.43;;;20.10;1.00;;;;;;4948199;28;20460;-85
2023/09/09 06:11:18;;;;;;;23.10;21.70;;;20.30;99.90;;;;;;4943786;28;20449;-85
2023/09/09 06:13:47;;;;;;;23.93;22.53;;;20.40;99.90;;;;;;4945108;28;20461;-85
2023/09/09 06:16:42;;;;;;;24.93;23.33;;;20.60;31.70;;;;;;4945896;28;21009;-85
2023/09/09 06:19:10;;;;;;;25.10;23.63;;;20.80;1.00;;;;;;4947619;28;20532;-85
2023/09/09 06:21:39;;;;;;;24.97;23.40;;;20.70;1.00;;;;;;4951976;28;20911;-83
2023/09/09 06:24:09;;;;;;;24.77;23.17;;;20.70;1.00;;;;;;4949058;28;20866;-84
2023/09/09 06:26:37;;;;;;;24.10;22.57;;;20.70;1.00;;;;;;4952742;28;20466;-79
2023/09/09 06:29:05;;;;;;;24.93;23.43;;;20.70;1.00;;;;;;4940628;28;20461;-72
2023/09/09 06:31:34;;;;;;;25.70;24.00;;;20.70;1.00;;;;;;4936972;28;20464;-72
2023/09/09 06:34:02;;;;;;;24.63;22.97;;;20.70;3.50;;;;;;4935112;28;20555;-73
2023/09/09 06:36:30;;;;;;;24.10;22.57;;;20.70;55.40;;;;;;4940143;28;20520;-75
2023/09/09 06:38:58;;;;;;;25.37;23.77;;;20.70;99.90;;;;;;4939117;28;20471;-72
2023/09/09 06:41:28;;;;;;;23.97;22.43;;;20.70;99.90;;;;;;4939442;28;20563;-72
2023/09/09 06:43:56;;;;;;;23.50;22.20;;;20.70;99.90;;;;;;4935096;28;20448;-73
2023/09/09 06:46:24;;;;;;;24.30;23.00;;;20.80;99.90;;;;;;4937250;28;20909;-75
2023/09/09 06:48:52;;;;;;;24.00;22.60;;;20.80;99.90;;;;;;4940730;28;20474;-72
2023/09/09 06:51:20;;;;;;;25.33;23.83;;;20.80;99.90;;;;;;4941429;28;20448;-75
2023/09/09 06:53:48;;;;;;;23.73;22.43;;;20.90;99.90;;;;;;4938240;28;20458;-73
2023/09/09 06:56:19;;;;;;;23.60;22.30;;;20.90;99.90;;;;;;4940464;28;20494;-74
2023/09/09 06:58:48;;;;;;;25.05;23.50;;;21.00;99.90;;;;;;4938023;28;20468;-75
2023/09/09 07:01:16;;;;;;;24.20;22.80;;;20.90;99.90;;;;;;4935892;28;20604;-72
2023/09/09 07:03:44;;;;;;;23.60;22.30;;;21.10;52.80;;;;;;4940369;28;20837;-74
2023/09/09 07:06:13;;;;;;;24.33;22.83;;;21.10;1.00;;;;;;4936030;28;20614;-74
2023/09/09 07:08:42;;;;;;;23.57;22.20;;;21.20;1.00;;;;;;4940780;28;20461;-72
2023/09/09 07:11:10;;;;;;;24.15;22.75;;;21.30;1.00;;;;;;4942820;28;20462;-75
2023/09/09 07:13:38;;;;;;;23.23;21.93;;;21.30;1.00;;;;;;4940670;28;20213;-75
2023/09/09 07:16:17;;;;;;;24.30;22.90;;;21.40;1.00;;;;;;4938895;28;20830;-81
2023/09/09 07:18:45;;;;;;;23.40;22.20;;;21.50;99.90;;;;;;4940900;28;21099;-81
2023/09/09 07:21:13;;;;;;;23.63;22.00;;;21.60;1.00;;;;;;4945338;28;20481;-82
2023/09/09 07:23:41;;;;;;;23.60;22.30;;;21.70;1.00;;;;;;4941119;28;20477;-80
2023/09/09 07:26:09;;;;;;;22.53;21.43;;;21.80;99.90;;;;;;4942758;28;21079;-81
2023/09/09 07:28:38;;;;;;;22.93;21.63;;;22.00;99.90;;;;;;4938612;28;20818;-81
2023/09/09 07:31:08;;;;;;;23.63;22.23;;;22.00;99.90;;;;;;4956937;28;20461;-82
2023/09/09 07:33:39;;;;;;;23.70;22.40;;;22.00;99.90;;;;;;4941415;28;20642;-83
2023/09/09 07:36:13;;;;;;;23.77;22.47;;;22.10;99.90;;;;;;4940536;28;20473;-79
2023/09/09 07:38:42;;;;;;;24.20;22.90;;;22.10;99.90;;;;;;4938800;28;20460;-80
2023/09/09 07:41:11;;;;;;;23.40;22.20;;;22.10;99.90;;;;;;4937537;28;20452;-80
2023/09/09 07:43:49;;;;;;;24.20;22.73;;;22.10;99.90;;;;;;4939324;28;20460;-80
2023/09/09 07:46:18;;;;;;;23.90;22.40;;;22.20;99.90;;;;;;4936515;28;20479;-80
2023/09/09 07:49:08;;;;;;;24.60;23.00;;;22.30;99.90;;;;;;4939630;28;21048;-81
2023/09/09 07:52:16;;;;;;;23.80;22.40;;;22.40;99.90;;;;;;4940800;28;20461;-80
2023/09/09 07:54:44;;;;;;;24.03;22.40;;;22.50;99.90;;;;;;4930137;28;20490;-79
2023/09/09 07:57:15;;;;;;;23.97;22.50;;;22.60;99.90;;;;;;4943858;28;20495;-81
2023/09/09 07:59:45;;;;;;;23.43;22.13;;;22.70;99.90;;;;;;4943801;28;20464;-81
2023/09/09 08:02:18;;;;;;;23.23;22.03;;;22.80;99.90;;;;;;4938148;28;20488;-81
2023/09/09 08:04:47;;;;;;;24.17;22.77;;;22.90;99.90;;;;;;4943474;28;20536;-77
2023/09/09 08:07:15;;;;;;;23.83;22.53;;;23.00;99.90;;;;;;4942099;28;20564;-78
2023/09/09 08:09:44;;;;;;;22.83;21.73;;;23.10;99.90;;;;;;4941619;28;20464;-79
2023/09/09 08:12:37;;;;;;;22.80;21.53;;;23.20;82.60;;;;;;4944170;28;20529;-79
2023/09/09 08:15:12;;;;;;;22.17;20.97;;;23.30;62.00;;;;;;4939984;28;20531;-78
2023/09/09 08:17:58;;;;;;;22.87;21.60;;;23.40;22.00;;;;;;4935705;28;20493;-79
2023/09/09 08:20:26;;;;;;;22.47;21.40;;;23.50;1.00;;;;;;4939796;28;20489;-81
2023/09/09 08:22:54;;;;;;;23.53;22.33;;;23.60;1.00;;;;;;4942052;28;20579;-83
2023/09/09 08:25:23;;;;;;;22.27;20.97;;;23.70;1.00;;;;;;4940451;28;20462;-78
2023/09/09 08:27:51;;;;;;;21.83;20.83;;;23.80;1.00;;;;;;4941690;28;20464;-80
2023/09/09 08:30:22;;;;;;;21.13;20.13;;;23.80;1.00;;;;;;4938970;28;20457;-80
2023/09/09 08:33:02;;;;;;;22.65;21.45;;;23.80;1.00;;;;;;4941082;28;20453;-81
2023/09/09 08:35:41;;;;;;;22.40;21.30;;;23.90;1.00;;;;;;4942075;28;20213;-81
2023/09/09 08:38:09;;;;;;;22.67;21.40;;;24.00;1.00;;;;;;4930275;28;21003;-82
2023/09/09 08:40:46;;;;;;;22.47;21.13;;;24.00;1.00;;;;;;4941083;28;20992;-81
2023/09/09 08:43:19;;;;;;;21.73;20.73;;;24.00;1.00;;;;;;4941384;28;20495;-83
2023/09/09 08:45:59;;;;;;;21.50;20.30;;;24.00;1.00;;;;;;4939971;28;20499;-81
2023/09/09 08:48:34;;;;;;;21.77;20.70;;;24.10;1.00;;;;;;4943536;28;20495;-80
2023/09/09 08:51:04;;;;;;;21.70;20.80;;;24.10;1.00;;;;;;4939141;28;20514;-78
2023/09/09 08:53:35;;;;;;;21.70;20.70;;;24.10;1.00;;;;;;4939767;28;20835;-82
2023/09/09 08:56:04;;;;;;;22.03;20.90;;;24.10;1.00;;;;;;4940730;28;20894;-79
2023/09/09 08:58:40;;;;;;;21.80;20.70;;;24.20;1.00;;;;;;4940435;28;20459;-80
2023/09/09 09:01:08;;;;;;;22.63;21.43;;;24.20;1.00;;;;;;4941730;28;20536;-80
2023/09/09 09:03:38;;;;;;;21.60;20.50;;;24.30;1.00;;;;;;4942149;28;21069;-79
2023/09/09 09:06:14;;;;;;;21.60;20.50;;;24.40;1.00;;;;;;4939901;28;20484;-80
2023/09/09 09:08:43;;;;;;;22.10;21.00;;;24.40;1.00;;;;;;4940009;28;20508;-81
2023/09/09 09:11:13;;;;;;;21.23;20.23;;;24.40;1.00;;;;;;4937902;28;20463;-81
2023/09/09 09:13:42;;;;;;;20.73;19.67;;;24.50;1.00;;;;;;4942776;28;20440;-80
2023/09/09 09:16:11;;;;;;;21.17;20.17;;;24.60;1.00;;;;;;4941287;28;20491;-81
2023/09/09 09:18:41;;;;;;;21.80;20.80;;;24.60;1.00;;;;;;4941245;28;20488;-80
2023/09/09 09:21:11;;;;;;;21.70;20.60;;;24.60;1.00;;;;;;4940777;28;20491;-83
2023/09/09 09:23:43;;;;;;;21.37;20.27;;;24.70;1.00;;;;;;4941396;28;20531;-80
2023/09/09 09:26:32;;;;;;;21.40;20.40;;;24.70;1.00;;;;;;4939589;28;20540;-82
2023/09/09 09:30:11;;;;;;;21.30;20.00;;;24.80;1.00;;;;;;4942414;28;20453;-81
2023/09/09 09:32:44;;;;;;;20.80;19.90;;;24.80;1.00;;;;;;4938526;28;20493;-80
2023/09/09 09:35:23;;;;;;;21.13;20.17;;;24.70;1.00;;;;;;4941019;28;20484;-81
2023/09/09 09:38:23;;;;;;;20.73;19.77;;;24.80;99.90;;;;;;4942305;28;20521;-80
2023/09/09 09:40:59;;;;;;;20.77;19.80;;;24.80;1.00;;;;;;4946707;28;21388;-81
2023/09/09 09:47:08;;;;;;;20.37;19.37;;;25.00;99.90;;;;;;4922763;28;20493;-83
2023/09/09 09:50:30;;;;;;;21.13;20.13;;;25.00;99.90;;;;;;4938525;28;20552;-81
2023/09/09 09:53:08;;;;;;;20.10;18.90;;;25.00;99.90;;;;;;4920654;29;20465;-82
2023/09/09 09:55:38;;;;;;;20.73;19.73;;;25.00;99.90;;;;;;4922513;29;20476;-83
2023/09/09 09:58:07;;;;;;;19.40;18.50;;;25.10;99.90;;;;;;4939754;28;20460;-81
2023/09/09 10:00:36;;;;;;;20.00;19.00;;;25.10;99.90;;;;;;4941655;28;20515;-83
2023/09/09 10:03:07;;;;;;;20.90;19.70;;;25.10;99.90;;;;;;4930851;28;20491;-81
2023/09/09 10:05:40;;;;;;;20.97;19.60;;;25.20;99.90;;;;;;4946929;28;20489;-81
2023/09/09 10:08:17;;;;;;;20.40;19.33;;;25.20;99.90;;;;;;4946356;28;20460;-84
2023/09/09 10:14:13;;;;;;;20.30;19.20;;;25.40;99.90;;;;;;4941489;28;20509;-84
2023/09/09 10:17:10;;;;;;;20.40;19.40;;;25.30;99.90;;;;;;4947784;28;21000;-83
2023/09/09 10:23:34;;;;;;;20.37;19.03;;;25.20;99.90;;;;;;4950528;28;20559;-81
2023/09/09 10:26:08;;;;;;;21.83;20.10;;;25.40;99.90;;;;;;4945513;28;20489;-83
2023/09/09 10:28:37;;;;;;;22.50;20.90;;;25.40;99.90;;;;;;4948747;28;20543;-83
2023/09/09 10:31:12;;;;;;;20.73;19.03;;;25.40;99.90;;;;;;4944826;28;20467;-83
2023/09/09 10:34:09;;;;;;;20.47;18.97;;;25.40;99.90;;;;;;4946310;28;20995;-84
2023/09/09 10:36:42;;;;;;;19.23;18.23;;;25.50;99.90;;;;;;4947553;28;20476;-83
2023/09/09 10:39:56;;;;;;;21.30;20.00;;;25.50;99.90;;;;;;4951096;28;20457;-83
2023/09/09 10:42:35;;;;;;;20.43;19.20;;;25.50;99.90;;;;;;4944948;28;20461;-82
2023/09/09 10:45:22;;;;;;;20.00;18.93;;;25.60;99.90;;;;;;4945495;28;20461;-82
2023/09/09 10:47:56;;;;;;;18.80;17.90;;;25.70;99.90;;;;;;4945309;28;20587;-81
2023/09/09 10:50:49;;;;;;;19.57;18.33;;;25.60;99.90;;;;;;4943658;28;20463;-84
2023/09/09 10:53:34;;;;;;;18.90;17.70;;;25.60;99.90;;;;;;4949775;28;20464;-83
2023/09/09 10:56:25;;;;;;;19.60;18.50;;;25.70;99.90;;;;;;4946415;28;20495;-82
2023/09/09 10:58:55;;;;;;;19.03;17.80;;;25.70;99.90;;;;;;4947583;28;20452;-81
2023/09/09 11:01:24;;;;;;;19.93;18.90;;;25.80;99.90;;;;;;4945635;28;20556;-80
2023/09/09 11:03:53;;;;;;;20.70;19.37;;;25.80;99.90;;;;;;4942138;28;20554;-80
2023/09/09 11:06:24;;;;;;;18.23;17.50;;;26.00;99.90;;;;;;4944811;28;20499;-82
2023/09/09 11:08:55;;;;;;;18.60;17.57;;;26.00;99.90;;;;;;4942954;28;20445;-80
2023/09/09 11:11:27;;;;;;;18.50;17.57;;;26.00;99.90;;;;;;4941975;28;20551;-81
2023/09/09 11:14:04;;;;;;;18.87;17.77;;;26.10;99.90;;;;;;4941974;28;20929;-85
2023/09/09 11:16:34;;;;;;;19.70;18.30;;;26.00;99.90;;;;;;4941544;28;20570;-81
2023/09/09 11:19:10;;;;;;;18.17;17.20;;;26.00;99.90;;;;;;4943063;28;20470;-82
2023/09/09 11:21:45;;;;;;;18.47;17.67;;;26.20;99.90;;;;;;4943301;28;20457;-80
2023/09/09 11:24:15;;;;;;;18.13;17.20;;;26.20;99.90;;;;;;4941855;28;21022;-83
2023/09/09 11:26:45;;;;;;;18.30;17.40;;;26.10;99.90;;;;;;4941719;28;20496;-80
2023/09/09 11:29:16;;;;;;;18.17;17.17;;;26.20;99.90;;;;;;4944905;28;20529;-81
2023/09/09 11:32:08;;;;;;;19.17;17.90;;;26.20;99.90;;;;;;4939703;28;20476;-82
2023/09/09 11:34:37;;;;;;;18.20;17.20;;;26.20;99.90;;;;;;4939692;28;20820;-82
2023/09/09 11:37:06;;;;;;;18.57;17.67;;;26.20;99.90;;;;;;4940861;28;20484;-80
2023/09/09 11:39:40;;;;;;;18.27;16.87;;;26.30;99.90;;;;;;4943944;28;20450;-80
2023/09/09 11:42:08;;;;;;;18.43;17.27;;;26.30;99.90;;;;;;4942374;28;20487;-81
2023/09/09 11:44:41;;;;;;;18.30;17.40;;;26.30;99.90;;;;;;4941581;28;20572;-82
2023/09/09 11:47:10;;;;;;;17.30;16.60;;;26.40;99.90;;;;;;4946758;28;21009;-84
2023/09/09 11:49:39;;;;;;;18.43;17.23;;;26.40;99.90;;;;;;4945164;28;20465;-86
2023/09/09 11:52:07;;;;;;;18.70;17.70;;;26.50;99.90;;;;;;4961659;28;20967;-84
2023/09/09 11:54:36;;;;;;;17.30;16.50;;;26.70;99.90;;;;;;4946065;28;20469;-84
2023/09/09 11:57:05;;;;;;;17.30;16.50;;;26.80;99.90;;;;;;4943211;28;20541;-82
2023/09/09 11:59:45;;;;;;;19.37;18.23;;;26.80;99.90;;;;;;4955248;28;20548;-84
2023/09/09 12:02:21;;;;;;;18.70;17.77;;;26.90;99.90;;;;;;4949225;28;20465;-84
2023/09/09 12:04:56;;;;;;;20.03;18.83;;;27.00;99.90;;;;;;4943468;28;20476;-84
2023/09/09 12:07:28;;;;;;;17.33;16.43;;;27.10;99.90;;;;;;4945549;28;20516;-83
2023/09/09 12:09:58;;;;;;;18.47;17.30;;;27.20;99.90;;;;;;4947460;28;20453;-85
2023/09/09 12:12:59;;;;;;;19.03;18.00;;;27.20;99.90;;;;;;4946904;28;20573;-82
2023/09/09 12:19:13;;;;;;;18.23;17.07;;;27.20;99.90;;;;;;4932985;28;20486;-82
2023/09/09 12:21:46;;;;;;;17.73;16.93;;;27.30;99.90;;;;;;4940900;28;20500;-83
2023/09/09 12:24:15;;;;;;;18.30;17.07;;;27.30;99.90;;;;;;4942145;28;20574;-82
2023/09/09 12:26:52;;;;;;;17.80;16.83;;;27.30;99.90;;;;;;4936128;28;20492;-83
2023/09/09 12:29:20;;;;;;;17.43;16.30;;;27.40;99.90;;;;;;4940068;28;20509;-81
2023/09/09 12:31:56;;;;;;;16.93;15.90;;;27.40;99.90;;;;;;4940987;28;20609;-81
2023/09/09 12:34:27;;;;;;;17.23;16.00;;;27.50;99.90;;;;;;4941200;28;20456;-83
2023/09/09 12:36:59;;;;;;;16.43;15.63;;;27.40;99.90;;;;;;4925809;28;20489;-82
2023/09/09 12:39:29;;;;;;;17.10;15.83;;;27.40;99.90;;;;;;4933277;28;20471;-80
2023/09/09 12:41:58;;;;;;;15.97;15.27;;;27.50;99.90;;;;;;4943370;28;20454;-82
2023/09/09 12:44:27;;;;;;;16.90;16.10;;;27.50;99.90;;;;;;4933221;28;20490;-79
2023/09/09 12:46:55;;;;;;;16.60;15.70;;;27.40;99.90;;;;;;4934156;28;20525;-83
2023/09/09 12:49:26;;;;;;;16.77;15.90;;;27.30;99.90;;;;;;4934749;28;20562;-87
2023/09/09 12:51:55;;;;;;;18.17;16.67;;;27.30;99.90;;;;;;4941626;28;20466;-85
2023/09/09 12:54:23;;;;;;;16.40;15.47;;;27.20;99.90;;;;;;4943919;28;20453;-86
2023/09/09 12:56:51;;;;;;;17.40;16.40;;;27.10;99.90;;;;;;4941326;28;21021;-87
2023/09/09 12:59:20;;;;;;;17.77;16.73;;;27.10;99.90;;;;;;4943911;28;20557;-85
2023/09/09 13:01:48;;;;;;;18.90;17.60;;;27.10;99.90;;;;;;4938377;28;21226;-87
2023/09/09 13:04:16;;;;;;;19.23;18.23;;;27.10;99.90;;;;;;4941261;28;20572;-86
2023/09/09 13:06:46;;;;;;;18.97;17.90;;;27.00;99.90;;;;;;4944621;28;20473;-87
2023/09/09 13:09:15;;;;;;;18.77;17.77;;;26.90;99.90;;;;;;4943457;28;20454;-87
2023/09/09 13:15:52;;;;;;;17.90;16.90;;;27.00;99.90;;;;;;4908940;28;21991;-85
2023/09/09 13:18:46;;;;;;;18.10;17.20;;;27.10;99.90;;;;;;4944023;28;20464;-86
2023/09/09 13:21:15;;;;;;;18.77;17.67;;;27.10;99.90;;;;;;4945809;28;20454;-86